createdAt,value
2023-01-21T00:01:20.716Z,7.76
2023-01-21T00:03:49.127Z,7.79
2023-01-21T00:06:17.887Z,7.82
2023-01-21T00:08:46.174Z,7.87
2023-01-21T00:11:15.960Z,7.88
2023-01-21T00:13:44.994Z,7.88
2023-01-21T00:16:14.060Z,7.88
2023-01-21T00:18:42.578Z,7.87
2023-01-21T00:21:10.969Z,7.88
2023-01-21T00:23:40.047Z,7.90
2023-01-21T00:26:12.127Z,7.88
2023-01-21T00:28:44.928Z,7.89
2023-01-21T00:31:13.933Z,7.90
2023-01-21T00:33:43.306Z,7.92
2023-01-21T00:36:14.009Z,7.91
2023-01-21T00:38:42.223Z,7.89
2023-01-21T00:41:13.104Z,7.85
2023-01-21T00:43:42.688Z,7.84
2023-01-21T00:46:11.940Z,7.84
2023-01-21T00:48:40.711Z,7.81
2023-01-21T00:51:10.185Z,7.78
2023-01-21T00:53:42.023Z,7.74
2023-01-21T00:56:12.170Z,7.72
2023-01-21T00:58:43.510Z,7.69
2023-01-21T01:01:18.030Z,7.69
2023-01-21T01:03:48.069Z,7.69
2023-01-21T01:06:25.159Z,7.68
2023-01-21T01:08:58.049Z,7.70
2023-01-21T01:11:27.842Z,7.71
2023-01-21T01:13:56.754Z,7.72
2023-01-21T01:16:25.062Z,7.74
2023-01-21T01:18:53.520Z,7.76
2023-01-21T01:21:22.534Z,7.83
2023-01-21T01:23:52.460Z,7.87
2023-01-21T01:26:22.318Z,7.91
2023-01-21T01:28:51.155Z,7.95
2023-01-21T01:31:21.217Z,7.99
2023-01-21T01:33:49.674Z,8.02
2023-01-21T01:36:23.804Z,8.02
2023-01-21T01:38:53.694Z,8.02
2023-01-21T01:41:24.797Z,8.04
2023-01-21T01:44:02.237Z,8.04
2023-01-21T01:46:36.549Z,8.05
2023-01-21T01:49:17.317Z,8.07
2023-01-21T01:51:54.401Z,8.05
2023-01-21T01:54:28.822Z,8.04
2023-01-21T01:57:01.653Z,8.03
2023-01-21T01:59:32.144Z,8.05
2023-01-21T02:02:06.859Z,8.02
2023-01-21T02:04:45.386Z,8.00
2023-01-21T02:07:15.521Z,7.98
2023-01-21T02:09:43.793Z,7.98
2023-01-21T02:12:12.687Z,7.99
2023-01-21T02:14:44.943Z,8.01
2023-01-21T02:17:35.253Z,8.01
2023-01-21T02:20:25.132Z,8.02
2023-01-21T02:23:12.644Z,8.02
2023-01-21T02:25:53.715Z,8.00
2023-01-21T02:28:50.650Z,7.99
2023-01-21T02:31:19.138Z,7.97
2023-01-21T02:34:29.374Z,7.96
2023-01-21T02:37:32.959Z,7.95
2023-01-21T02:40:06.267Z,7.92
2023-01-21T02:42:50.922Z,7.91
2023-01-21T02:45:44.679Z,7.88
2023-01-21T02:48:25.239Z,7.88
2023-01-21T02:50:54.803Z,7.88
2023-01-21T02:53:31.215Z,7.85
2023-01-21T02:56:05.544Z,7.82
2023-01-21T02:58:38.444Z,7.80
2023-01-21T03:01:14.009Z,7.80
2023-01-21T03:04:00.671Z,7.79
2023-01-21T03:06:49.214Z,7.76
2023-01-21T03:09:17.712Z,7.73
2023-01-21T03:11:56.891Z,7.73
2023-01-21T03:15:09.324Z,7.72
2023-01-21T03:18:04.212Z,7.71
2023-01-21T03:20:42.527Z,7.74
2023-01-21T03:23:16.558Z,7.73
2023-01-21T03:25:47.278Z,7.72
2023-01-21T03:28:21.797Z,7.71
2023-01-21T03:30:59.310Z,7.73
2023-01-21T03:33:30.129Z,7.74
2023-01-21T03:36:06.754Z,7.70
2023-01-21T03:38:42.171Z,7.63
2023-01-21T03:41:28.282Z,7.55
2023-01-21T03:43:56.625Z,7.48
2023-01-21T03:46:38.312Z,7.46
2023-01-21T03:49:19.317Z,7.47
2023-01-21T03:51:52.069Z,7.51
2023-01-21T03:54:20.553Z,7.53
2023-01-21T03:56:48.983Z,7.56
2023-01-21T03:59:17.420Z,7.61
2023-01-21T04:01:45.705Z,7.64
2023-01-21T04:04:14.194Z,7.65
2023-01-21T04:06:42.884Z,7.70
2023-01-21T04:09:11.591Z,7.76
2023-01-21T04:11:39.855Z,7.81
2023-01-21T04:14:08.850Z,7.85
2023-01-21T04:16:37.266Z,7.87
2023-01-21T04:19:05.521Z,7.87
2023-01-21T04:21:33.902Z,7.85
2023-01-21T04:24:02.906Z,7.83
2023-01-21T04:26:31.705Z,7.82
2023-01-21T04:29:00.284Z,7.81
2023-01-21T04:31:28.715Z,7.80
2023-01-21T04:33:56.994Z,7.79
2023-01-21T04:36:25.128Z,7.77
2023-01-21T04:38:53.444Z,7.76
2023-01-21T04:41:23.859Z,7.72
2023-01-21T04:43:53.662Z,7.70
2023-01-21T04:46:22.554Z,7.68
2023-01-21T04:48:50.959Z,7.70
2023-01-21T04:51:19.375Z,7.72
2023-01-21T04:53:47.707Z,7.73
2023-01-21T04:56:15.894Z,7.72
2023-01-21T04:58:44.381Z,7.68
2023-01-21T05:01:12.901Z,7.64
2023-01-21T05:03:41.256Z,7.60
2023-01-21T05:06:09.850Z,7.58
2023-01-21T05:08:38.338Z,7.57
2023-01-21T05:11:12.540Z,7.56
2023-01-21T05:13:40.718Z,7.50
2023-01-21T05:16:10.270Z,7.42
2023-01-21T05:18:39.023Z,7.36
2023-01-21T05:21:08.152Z,7.30
2023-01-21T05:23:36.413Z,7.28
2023-01-21T05:26:04.694Z,7.26
2023-01-21T05:28:33.906Z,7.26
2023-01-21T05:31:03.800Z,7.24
2023-01-21T05:33:34.242Z,7.19
2023-01-21T05:36:03.953Z,7.14
2023-01-21T05:38:32.445Z,7.13
2023-01-21T05:41:02.671Z,7.09
2023-01-21T05:43:31.266Z,7.06
2023-01-21T05:45:59.655Z,7.03
2023-01-21T05:48:29.681Z,7.00
2023-01-21T05:50:58.893Z,6.94
2023-01-21T05:53:27.702Z,6.88
2023-01-21T05:55:57.181Z,6.85
2023-01-21T05:58:26.390Z,6.80
2023-01-21T06:00:56.603Z,6.75
2023-01-21T06:03:26.014Z,6.71
2023-01-21T06:05:54.390Z,6.68
2023-01-21T06:08:23.704Z,6.67
2023-01-21T06:10:56.341Z,6.65
2023-01-21T06:13:25.074Z,6.65
2023-01-21T06:15:57.287Z,6.65
2023-01-21T06:18:25.743Z,6.67
2023-01-21T06:20:54.218Z,6.75
2023-01-21T06:23:22.707Z,6.85
2023-01-21T06:25:51.090Z,6.96
2023-01-21T06:28:19.776Z,7.02
2023-01-21T06:30:48.419Z,7.00
2023-01-21T06:33:16.750Z,6.88
2023-01-21T06:35:44.941Z,6.77
2023-01-21T06:38:14.079Z,6.64
2023-01-21T06:40:43.583Z,6.52
2023-01-21T06:43:11.928Z,6.42
2023-01-21T06:45:40.409Z,6.33
2023-01-21T06:48:08.590Z,6.26
2023-01-21T06:50:36.974Z,6.24
2023-01-21T06:53:05.567Z,6.25
2023-01-21T06:55:34.057Z,6.27
2023-01-21T06:58:02.956Z,6.31
2023-01-21T07:00:31.643Z,6.33
2023-01-21T07:03:00.899Z,6.36
2023-01-21T07:05:29.269Z,6.42
2023-01-21T07:07:57.821Z,6.51
2023-01-21T07:10:26.508Z,6.54
2023-01-21T07:12:54.685Z,6.52
2023-01-21T07:15:22.864Z,6.51
2023-01-21T07:17:52.378Z,6.50
2023-01-21T07:20:22.812Z,6.52
2023-01-21T07:22:50.987Z,6.53
2023-01-21T07:25:19.658Z,6.51
2023-01-21T07:27:48.375Z,6.50
2023-01-21T07:30:19.412Z,6.48
2023-01-21T07:32:48.007Z,6.46
2023-01-21T07:35:16.510Z,6.44
2023-01-21T07:37:44.974Z,6.45
2023-01-21T07:40:13.787Z,6.48
2023-01-21T07:42:42.165Z,6.50
2023-01-21T07:45:11.065Z,6.53
2023-01-21T07:47:39.339Z,6.54
2023-01-21T07:50:08.971Z,6.58
2023-01-21T07:52:37.938Z,6.66
2023-01-21T07:55:08.060Z,6.75
2023-01-21T07:57:36.366Z,6.85
2023-01-21T08:00:05.244Z,6.96
2023-01-21T08:02:41.129Z,7.04
2023-01-21T08:05:10.461Z,7.14
2023-01-21T08:07:38.794Z,7.26
2023-01-21T08:10:07.957Z,7.39
2023-01-21T08:12:36.170Z,7.50
2023-01-21T08:15:05.455Z,7.56
2023-01-21T08:17:33.757Z,7.63
2023-01-21T08:20:01.944Z,7.69
2023-01-21T08:22:30.221Z,7.74
2023-01-21T08:24:58.608Z,7.80
2023-01-21T08:27:26.891Z,7.83
2023-01-21T08:29:55.314Z,7.84
2023-01-21T08:32:23.965Z,7.91
2023-01-21T08:34:52.351Z,7.98
2023-01-21T08:37:20.738Z,8.06
2023-01-21T08:39:49.420Z,8.13
2023-01-21T08:42:17.816Z,8.20
2023-01-21T08:44:46.705Z,8.26
2023-01-21T08:47:15.288Z,8.34
2023-01-21T08:49:44.702Z,8.50
2023-01-21T08:52:13.492Z,8.89
2023-01-21T08:54:42.092Z,9.57
2023-01-21T08:57:10.569Z,10.37
2023-01-21T08:59:39.158Z,11.05
2023-01-21T09:02:08.802Z,11.73
2023-01-21T09:04:37.461Z,12.24
2023-01-21T09:07:05.741Z,12.73
2023-01-21T09:09:34.743Z,13.16
2023-01-21T09:12:05.989Z,13.69
2023-01-21T09:14:34.275Z,14.18
2023-01-21T09:17:02.457Z,14.67
2023-01-21T09:19:30.741Z,15.07
2023-01-21T09:21:59.121Z,15.37
2023-01-21T09:24:28.019Z,15.56
2023-01-21T09:26:56.611Z,15.90
2023-01-21T09:29:25.196Z,16.32
2023-01-21T09:31:53.635Z,16.77
2023-01-21T09:34:21.960Z,17.01
2023-01-21T09:36:50.146Z,17.32
2023-01-21T09:39:18.431Z,17.86
2023-01-21T09:41:52.511Z,18.25
2023-01-21T09:44:29.932Z,18.43
2023-01-21T09:47:07.208Z,18.68
2023-01-21T09:49:44.506Z,18.67
2023-01-21T09:52:31.309Z,18.97
2023-01-21T09:55:01.648Z,19.26
2023-01-21T09:57:32.884Z,19.28
2023-01-21T10:00:20.211Z,19.75
2023-01-21T10:02:53.803Z,19.98
2023-01-21T10:05:24.961Z,20.13
2023-01-21T10:08:18.304Z,20.00
2023-01-21T10:11:03.782Z,19.94
2023-01-21T10:14:03.479Z,20.00
2023-01-21T10:16:38.893Z,20.21
2023-01-21T10:19:17.746Z,20.46
2023-01-21T10:21:57.199Z,20.69
2023-01-21T10:24:31.603Z,21.02
2023-01-21T10:27:00.964Z,21.11
2023-01-21T10:29:29.518Z,21.23
2023-01-21T10:32:04.132Z,21.35
2023-01-21T10:34:40.005Z,21.26
2023-01-21T10:37:37.223Z,21.38
2023-01-21T10:40:17.431Z,21.69
2023-01-21T10:43:06.551Z,21.90
2023-01-21T10:45:37.993Z,21.82
2023-01-21T10:48:28.976Z,21.86
2023-01-21T10:51:13.756Z,21.91
2023-01-21T10:53:56.966Z,21.68
2023-01-21T10:56:38.454Z,21.76
2023-01-21T10:59:12.975Z,21.97
2023-01-21T11:01:46.271Z,21.86
2023-01-21T11:04:24.684Z,21.96
2023-01-21T11:07:05.303Z,22.42
2023-01-21T11:09:39.876Z,22.58
2023-01-21T11:12:12.556Z,22.66
2023-01-21T11:14:41.043Z,22.96
2023-01-21T11:17:10.347Z,23.29
2023-01-21T11:19:38.472Z,23.37
2023-01-21T11:22:12.946Z,23.49
2023-01-21T11:24:49.737Z,23.49
2023-01-21T11:27:38.507Z,23.64
2023-01-21T11:30:48.306Z,23.85
2023-01-21T11:33:19.249Z,24.23
2023-01-21T11:35:48.210Z,24.34
2023-01-21T11:38:35.401Z,24.32
2023-01-21T11:41:11.173Z,24.43
2023-01-21T11:43:47.115Z,24.57
2023-01-21T11:46:34.563Z,24.49
2023-01-21T11:49:08.521Z,24.24
2023-01-21T11:51:39.315Z,24.12
2023-01-21T11:54:18.924Z,23.78
2023-01-21T11:56:58.210Z,23.59
2023-01-21T11:59:34.349Z,23.20
2023-01-21T12:02:24.369Z,22.59
2023-01-21T12:05:21.392Z,21.75
2023-01-21T12:07:52.648Z,20.89
2023-01-21T12:10:33.305Z,20.58
2023-01-21T12:13:17.043Z,20.21
2023-01-21T12:16:16.677Z,19.80
2023-01-21T12:19:00.265Z,19.34
2023-01-21T12:21:47.065Z,18.97
2023-01-21T12:24:47.815Z,18.76
2023-01-21T12:27:46.564Z,18.56
2023-01-21T12:30:27.330Z,18.11
2023-01-21T12:33:02.071Z,17.46
2023-01-21T12:35:36.485Z,16.84
2023-01-21T12:38:14.211Z,16.62
2023-01-21T12:41:00.369Z,16.36
2023-01-21T12:43:46.764Z,16.05
2023-01-21T12:46:41.012Z,15.66
2023-01-21T12:49:25.298Z,15.12
2023-01-21T12:52:00.115Z,14.52
2023-01-21T12:54:54.395Z,14.11
2023-01-21T12:57:38.448Z,13.73
2023-01-21T13:00:29.862Z,13.48
2023-01-21T13:03:04.168Z,13.05
2023-01-21T13:06:05.301Z,12.76
2023-01-21T13:08:55.270Z,12.45
2023-01-21T13:11:33.274Z,12.10
2023-01-21T13:14:07.290Z,11.89
2023-01-21T13:16:44.310Z,11.66
2023-01-21T13:19:14.992Z,11.56
2023-01-21T13:22:14.090Z,11.58
2023-01-21T13:25:05.103Z,11.41
2023-01-21T13:27:47.698Z,11.28
2023-01-21T13:30:55.219Z,11.05
2023-01-21T13:33:47.719Z,10.82
2023-01-21T13:36:25.507Z,10.66
2023-01-21T13:39:32.780Z,10.62
2023-01-21T13:42:09.872Z,10.51
2023-01-21T13:44:52.275Z,10.44
2023-01-21T13:47:31.910Z,10.28
2023-01-21T13:50:19.900Z,10.16
2023-01-21T13:53:00.607Z,10.12
2023-01-21T13:56:04.805Z,10.06
2023-01-21T13:58:48.956Z,9.99
2023-01-21T14:01:26.543Z,9.95
2023-01-21T14:04:04.976Z,9.90
2023-01-21T14:06:49.554Z,9.85
2023-01-21T14:09:28.195Z,9.77
2023-01-21T14:12:05.525Z,9.66
2023-01-21T14:14:52.630Z,9.55
2023-01-21T14:17:59.597Z,9.36
2023-01-21T14:20:28.192Z,9.16
2023-01-21T14:23:05.474Z,9.04
2023-01-21T14:25:34.280Z,8.98
2023-01-21T14:28:26.081Z,8.89
2023-01-21T14:31:19.452Z,8.75
2023-01-21T14:34:14.016Z,8.60
2023-01-21T14:37:01.960Z,8.55
2023-01-21T14:40:13.721Z,8.47
2023-01-21T14:42:43.752Z,8.31
2023-01-21T14:45:14.506Z,8.27
2023-01-21T14:47:48.906Z,8.23
2023-01-21T14:50:47.420Z,8.17
2023-01-21T14:53:23.539Z,8.02
2023-01-21T14:56:07.584Z,7.96
2023-01-21T14:58:37.280Z,7.94
2023-01-21T15:01:07.392Z,7.95
2023-01-21T15:03:48.291Z,7.93
2023-01-21T15:06:22.304Z,7.88
2023-01-21T15:08:56.630Z,7.82
2023-01-21T15:11:34.830Z,7.73
2023-01-21T15:14:12.400Z,7.56
2023-01-21T15:16:43.294Z,7.37
2023-01-21T15:19:11.748Z,7.17
2023-01-21T15:21:43.405Z,7.00
2023-01-21T15:24:30.929Z,6.87
2023-01-21T15:27:21.010Z,6.79
2023-01-21T15:29:55.327Z,6.79
2023-01-21T15:32:32.510Z,6.74
2023-01-21T15:35:05.301Z,6.67
2023-01-21T15:37:38.683Z,6.60
2023-01-21T15:40:36.860Z,6.58
2023-01-21T15:43:05.141Z,6.55
2023-01-21T15:45:49.020Z,6.52
2023-01-21T15:48:17.260Z,6.45
2023-01-21T15:50:56.327Z,6.39
2023-01-21T15:53:33.982Z,6.38
2023-01-21T15:56:41.196Z,6.39
2023-01-21T15:59:26.317Z,6.44
2023-01-21T16:02:16.641Z,6.46
2023-01-21T16:04:50.000Z,6.43
2023-01-21T16:07:27.494Z,6.35
2023-01-21T16:10:04.590Z,6.29
2023-01-21T16:12:50.376Z,6.22
2023-01-21T16:15:49.043Z,6.08
2023-01-21T16:18:50.781Z,5.92
2023-01-21T16:21:29.597Z,5.79
2023-01-21T16:24:01.549Z,5.73
2023-01-21T16:26:33.104Z,5.70
2023-01-21T16:29:02.117Z,5.68
2023-01-21T16:31:30.470Z,5.68
2023-01-21T16:33:58.902Z,5.69
2023-01-21T16:36:27.067Z,5.70
2023-01-21T16:38:55.558Z,5.71
2023-01-21T16:41:25.423Z,5.71
2023-01-21T16:44:01.742Z,5.71
2023-01-21T16:46:37.790Z,5.71
2023-01-21T16:49:17.811Z,5.69
2023-01-21T16:51:56.676Z,5.65
2023-01-21T16:54:29.783Z,5.57
2023-01-21T16:57:20.977Z,5.50
2023-01-21T16:59:49.772Z,5.42
2023-01-21T17:02:24.121Z,5.38
2023-01-21T17:04:57.183Z,5.35
2023-01-21T17:07:33.744Z,5.25
2023-01-21T17:10:17.601Z,5.18
2023-01-21T17:12:50.230Z,5.14
2023-01-21T17:15:36.315Z,5.15
2023-01-21T17:18:21.177Z,5.15
2023-01-21T17:20:53.205Z,5.13
2023-01-21T17:23:25.784Z,5.12
2023-01-21T17:26:23.312Z,5.13
2023-01-21T17:29:09.098Z,5.13
2023-01-21T17:31:42.993Z,5.15
2023-01-21T17:34:11.179Z,5.22
2023-01-21T17:36:40.875Z,5.24
2023-01-21T17:39:10.885Z,5.25
2023-01-21T17:41:46.276Z,5.23
2023-01-21T17:44:21.211Z,5.20
2023-01-21T17:46:52.950Z,5.11
2023-01-21T17:49:26.549Z,5.08
2023-01-21T17:51:55.665Z,5.05
2023-01-21T17:54:26.623Z,5.00
2023-01-21T17:56:58.161Z,4.93
2023-01-21T17:59:41.176Z,4.82
2023-01-21T18:02:12.946Z,4.70
2023-01-21T18:04:42.142Z,4.63
2023-01-21T18:07:23.210Z,4.58
2023-01-21T18:09:53.321Z,4.53
2023-01-21T18:12:22.117Z,4.48
2023-01-21T18:14:50.413Z,4.44
2023-01-21T18:17:22.274Z,4.39
2023-01-21T18:19:51.241Z,4.36
2023-01-21T18:22:27.133Z,4.34
2023-01-21T18:24:55.820Z,4.27
2023-01-21T18:27:26.194Z,4.21
2023-01-21T18:29:54.842Z,4.14
2023-01-21T18:32:23.228Z,4.09
2023-01-21T18:34:51.638Z,4.02
2023-01-21T18:37:20.673Z,3.97
2023-01-21T18:39:48.992Z,3.91
2023-01-21T18:42:18.205Z,3.86
2023-01-21T18:44:46.474Z,3.84
2023-01-21T18:47:18.246Z,3.79
2023-01-21T18:49:49.514Z,3.77
2023-01-21T18:52:19.895Z,3.77
2023-01-21T18:54:48.307Z,3.75
2023-01-21T18:57:22.828Z,3.72
2023-01-21T18:59:51.426Z,3.72
2023-01-21T19:02:21.462Z,3.75
2023-01-21T19:04:50.026Z,3.78
2023-01-21T19:07:23.967Z,3.80
2023-01-21T19:09:52.422Z,3.81
2023-01-21T19:12:21.443Z,3.81
2023-01-21T19:14:49.622Z,3.82
2023-01-21T19:17:30.168Z,3.85
2023-01-21T19:19:58.751Z,3.86
2023-01-21T19:22:27.246Z,3.84
2023-01-21T19:24:55.635Z,3.85
2023-01-21T19:27:30.760Z,3.83
2023-01-21T19:29:59.350Z,3.82
2023-01-21T19:32:27.640Z,3.79
2023-01-21T19:34:57.909Z,3.76
2023-01-21T19:37:26.255Z,3.76
2023-01-21T19:39:54.939Z,3.74
2023-01-21T19:42:23.320Z,3.72
2023-01-21T19:44:51.809Z,3.67
2023-01-21T19:47:28.377Z,3.60
2023-01-21T19:49:56.968Z,3.52
2023-01-21T19:52:25.355Z,3.45
2023-01-21T19:54:55.168Z,3.36
2023-01-21T19:57:23.762Z,3.26
2023-01-21T19:59:53.475Z,3.24
2023-01-21T20:02:21.861Z,3.23
2023-01-21T20:04:50.550Z,3.23
2023-01-21T20:07:20.670Z,3.21
2023-01-21T20:09:49.667Z,3.18
2023-01-21T20:12:17.950Z,3.13
2023-01-21T20:14:46.131Z,3.09
2023-01-21T20:17:14.517Z,3.05
2023-01-21T20:19:42.807Z,3.02
2023-01-21T20:22:12.817Z,3.00
2023-01-21T20:24:41.423Z,2.96
2023-01-21T20:27:14.263Z,2.92
2023-01-21T20:29:49.630Z,2.90
2023-01-21T20:32:24.569Z,2.91
2023-01-21T20:34:52.757Z,2.90
2023-01-21T20:37:20.943Z,2.90
2023-01-21T20:39:49.527Z,2.92
2023-01-21T20:42:17.732Z,2.96
2023-01-21T20:44:46.088Z,2.98
2023-01-21T20:47:14.616Z,2.99
2023-01-21T20:49:43.778Z,2.96
2023-01-21T20:52:11.954Z,2.98
2023-01-21T20:54:40.541Z,2.98
2023-01-21T20:57:14.865Z,2.98
2023-01-21T20:59:43.246Z,3.00
2023-01-21T21:02:12.466Z,2.97
2023-01-21T21:04:41.241Z,2.93
2023-01-21T21:07:16.194Z,2.89
2023-01-21T21:09:44.974Z,2.89
2023-01-21T21:12:13.256Z,2.92
2023-01-21T21:14:41.636Z,2.97
2023-01-21T21:17:12.366Z,3.03
2023-01-21T21:19:40.667Z,3.08
2023-01-21T21:22:08.842Z,3.12
2023-01-21T21:24:37.533Z,3.12
2023-01-21T21:27:05.915Z,3.11
2023-01-21T21:29:34.296Z,3.09
2023-01-21T21:32:02.944Z,3.07
2023-01-21T21:34:31.578Z,3.01
2023-01-21T21:36:59.965Z,2.92
2023-01-21T21:39:28.868Z,2.82
2023-01-21T21:42:16.379Z,2.79
2023-01-21T21:44:44.965Z,2.77
2023-01-21T21:47:31.975Z,2.77
2023-01-21T21:50:00.358Z,2.77
2023-01-21T21:52:28.745Z,2.76
2023-01-21T21:54:57.134Z,2.76
2023-01-21T21:57:25.512Z,2.72
2023-01-21T21:59:54.001Z,2.67
2023-01-21T22:02:22.462Z,2.62
2023-01-21T22:04:55.072Z,2.57
2023-01-21T22:07:23.654Z,2.52
2023-01-21T22:09:52.243Z,2.45
2023-01-21T22:12:20.525Z,2.41
2023-01-21T22:14:48.722Z,2.40
2023-01-21T22:17:17.090Z,2.41
2023-01-21T22:19:45.389Z,2.42
2023-01-21T22:22:13.759Z,2.42
2023-01-21T22:24:44.394Z,2.45
2023-01-21T22:27:13.392Z,2.49
2023-01-21T22:29:41.782Z,2.53
2023-01-21T22:32:10.879Z,2.55
2023-01-21T22:34:39.165Z,2.57
2023-01-21T22:37:07.746Z,2.60
2023-01-21T22:39:36.130Z,2.65
2023-01-21T22:42:05.247Z,2.72
2023-01-21T22:44:33.514Z,2.80
2023-01-21T22:47:02.104Z,2.81
2023-01-21T22:49:30.285Z,2.87
2023-01-21T22:51:58.771Z,2.93
2023-01-21T22:54:27.110Z,2.99
2023-01-21T22:56:55.857Z,3.02
2023-01-21T22:59:24.436Z,3.05
2023-01-21T23:01:52.715Z,3.12
2023-01-21T23:04:21.213Z,3.19
2023-01-21T23:06:54.893Z,3.24
2023-01-21T23:09:23.499Z,3.30
2023-01-21T23:11:52.918Z,3.34
2023-01-21T23:14:21.187Z,3.38
2023-01-21T23:16:52.643Z,3.42
2023-01-21T23:19:21.028Z,3.44
2023-01-21T23:21:49.217Z,3.44
2023-01-21T23:24:18.518Z,3.44
2023-01-21T23:26:47.407Z,3.41
2023-01-21T23:29:15.590Z,3.39
2023-01-21T23:31:44.374Z,3.37
2023-01-21T23:34:14.571Z,3.32
2023-01-21T23:36:42.992Z,3.28
2023-01-21T23:39:11.581Z,3.25
2023-01-21T23:41:40.075Z,3.24
2023-01-21T23:44:10.640Z,3.23
2023-01-21T23:46:39.297Z,3.24
2023-01-21T23:49:08.246Z,3.24
2023-01-21T23:51:36.474Z,3.23
2023-01-21T23:54:05.058Z,3.24
2023-01-21T23:56:33.457Z,3.23
2023-01-21T23:59:01.854Z,3.24
